sensor_id;sensor_type;location;lat;lon;timestamp;P1;durP1;ratioP1;P2;durP2;ratioP2
16662;SDS011;8445;51.270;9.434;2023-07-22T00:02:19;17.80;;;16.35;;
16662;SDS011;8445;51.270;9.434;2023-07-22T00:04:45;19.25;;;17.52;;
16662;SDS011;8445;51.270;9.434;2023-07-22T00:07:11;19.83;;;17.90;;
16662;SDS011;8445;51.270;9.434;2023-07-22T00:09:36;19.63;;;17.83;;
16662;SDS011;8445;51.270;9.434;2023-07-22T00:12:04;20.80;;;19.02;;
16662;SDS011;8445;51.270;9.434;2023-07-22T00:14:30;20.30;;;18.60;;
16662;SDS011;8445;51.270;9.434;2023-07-22T00:16:55;22.10;;;18.45;;
16662;SDS011;8445;51.270;9.434;2023-07-22T00:19:21;20.27;;;18.05;;
16662;SDS011;8445;51.270;9.434;2023-07-22T00:21:47;20.88;;;18.92;;
16662;SDS011;8445;51.270;9.434;2023-07-22T00:24:14;21.38;;;18.52;;
16662;SDS011;8445;51.270;9.434;2023-07-22T00:26:40;20.67;;;18.88;;
16662;SDS011;8445;51.270;9.434;2023-07-22T00:29:06;19.60;;;17.85;;
16662;SDS011;8445;51.270;9.434;2023-07-22T00:31:33;21.10;;;19.17;;
16662;SDS011;8445;51.270;9.434;2023-07-22T00:33:58;20.13;;;18.33;;
16662;SDS011;8445;51.270;9.434;2023-07-22T00:36:24;21.10;;;19.17;;
16662;SDS011;8445;51.270;9.434;2023-07-22T00:38:50;24.10;;;20.33;;
16662;SDS011;8445;51.270;9.434;2023-07-22T00:41:18;22.98;;;18.63;;
16662;SDS011;8445;51.270;9.434;2023-07-22T00:43:44;23.63;;;18.40;;
16662;SDS011;8445;51.270;9.434;2023-07-22T00:46:09;21.35;;;19.17;;
16662;SDS011;8445;51.270;9.434;2023-07-22T00:48:35;21.33;;;19.10;;
16662;SDS011;8445;51.270;9.434;2023-07-22T00:51:01;20.65;;;18.65;;
16662;SDS011;8445;51.270;9.434;2023-07-22T00:53:27;24.33;;;18.88;;
16662;SDS011;8445;51.270;9.434;2023-07-22T00:55:52;19.92;;;17.92;;
16662;SDS011;8445;51.270;9.434;2023-07-22T00:58:20;20.48;;;18.55;;
16662;SDS011;8445;51.270;9.434;2023-07-22T01:00:46;21.80;;;19.70;;
16662;SDS011;8445;51.270;9.434;2023-07-22T01:03:11;20.95;;;19.17;;
16662;SDS011;8445;51.270;9.434;2023-07-22T01:05:38;22.70;;;20.60;;
16662;SDS011;8445;51.270;9.434;2023-07-22T01:08:04;24.05;;;20.48;;
16662;SDS011;8445;51.270;9.434;2023-07-22T01:10:31;24.20;;;21.60;;
16662;SDS011;8445;51.270;9.434;2023-07-22T01:12:56;23.00;;;20.73;;
16662;SDS011;8445;51.270;9.434;2023-07-22T01:15:23;25.00;;;22.10;;
16662;SDS011;8445;51.270;9.434;2023-07-22T01:17:50;25.45;;;21.35;;
16662;SDS011;8445;51.270;9.434;2023-07-22T01:20:15;24.67;;;21.30;;
16662;SDS011;8445;51.270;9.434;2023-07-22T01:22:49;24.33;;;21.65;;
16662;SDS011;8445;51.270;9.434;2023-07-22T01:25:18;23.73;;;21.55;;
16662;SDS011;8445;51.270;9.434;2023-07-22T01:27:47;24.35;;;21.67;;
16662;SDS011;8445;51.270;9.434;2023-07-22T01:30:18;24.05;;;21.67;;
16662;SDS011;8445;51.270;9.434;2023-07-22T01:32:47;25.77;;;23.17;;
16662;SDS011;8445;51.270;9.434;2023-07-22T01:35:12;24.45;;;22.10;;
16662;SDS011;8445;51.270;9.434;2023-07-22T01:37:38;27.27;;;22.48;;
16662;SDS011;8445;51.270;9.434;2023-07-22T01:40:04;26.02;;;23.25;;
16662;SDS011;8445;51.270;9.434;2023-07-22T01:42:43;28.85;;;23.55;;
16662;SDS011;8445;51.270;9.434;2023-07-22T01:45:09;28.00;;;23.40;;
16662;SDS011;8445;51.270;9.434;2023-07-22T01:47:35;30.00;;;23.83;;
16662;SDS011;8445;51.270;9.434;2023-07-22T01:50:02;30.88;;;24.10;;
16662;SDS011;8445;51.270;9.434;2023-07-22T01:52:29;25.55;;;22.95;;
16662;SDS011;8445;51.270;9.434;2023-07-22T01:54:55;25.77;;;21.65;;
16662;SDS011;8445;51.270;9.434;2023-07-22T01:57:21;25.42;;;19.80;;
16662;SDS011;8445;51.270;9.434;2023-07-22T01:59:46;24.35;;;21.85;;
16662;SDS011;8445;51.270;9.434;2023-07-22T02:02:12;26.05;;;22.75;;
16662;SDS011;8445;51.270;9.434;2023-07-22T02:04:37;26.02;;;23.27;;
16662;SDS011;8445;51.270;9.434;2023-07-22T02:07:03;29.23;;;25.35;;
16662;SDS011;8445;51.270;9.434;2023-07-22T02:09:28;35.13;;;25.75;;
16662;SDS011;8445;51.270;9.434;2023-07-22T02:11:54;26.45;;;23.17;;
16662;SDS011;8445;51.270;9.434;2023-07-22T02:14:19;25.50;;;22.85;;
16662;SDS011;8445;51.270;9.434;2023-07-22T02:16:45;26.07;;;23.07;;
16662;SDS011;8445;51.270;9.434;2023-07-22T02:19:11;23.58;;;21.15;;
16662;SDS011;8445;51.270;9.434;2023-07-22T02:21:39;25.92;;;23.45;;
16662;SDS011;8445;51.270;9.434;2023-07-22T02:24:05;26.30;;;23.75;;
16662;SDS011;8445;51.270;9.434;2023-07-22T02:26:33;27.02;;;23.40;;
16662;SDS011;8445;51.270;9.434;2023-07-22T02:28:59;29.77;;;26.02;;
16662;SDS011;8445;51.270;9.434;2023-07-22T02:31:24;28.02;;;23.85;;
16662;SDS011;8445;51.270;9.434;2023-07-22T02:33:50;35.50;;;25.52;;
16662;SDS011;8445;51.270;9.434;2023-07-22T02:36:16;26.85;;;23.85;;
16662;SDS011;8445;51.270;9.434;2023-07-22T02:38:41;28.10;;;23.95;;
16662;SDS011;8445;51.270;9.434;2023-07-22T02:41:07;28.90;;;24.17;;
16662;SDS011;8445;51.270;9.434;2023-07-22T02:43:36;26.75;;;23.52;;
16662;SDS011;8445;51.270;9.434;2023-07-22T02:46:02;32.10;;;26.10;;
16662;SDS011;8445;51.270;9.434;2023-07-22T02:48:29;34.40;;;28.02;;
16662;SDS011;8445;51.270;9.434;2023-07-22T02:51:01;31.00;;;24.25;;
16662;SDS011;8445;51.270;9.434;2023-07-22T02:53:31;33.33;;;24.27;;
16662;SDS011;8445;51.270;9.434;2023-07-22T02:56:00;30.83;;;24.83;;
16662;SDS011;8445;51.270;9.434;2023-07-22T02:58:26;29.17;;;25.38;;
16662;SDS011;8445;51.270;9.434;2023-07-22T03:00:51;26.42;;;23.70;;
16662;SDS011;8445;51.270;9.434;2023-07-22T03:03:17;25.13;;;22.50;;
16662;SDS011;8445;51.270;9.434;2023-07-22T03:05:44;27.55;;;24.67;;
16662;SDS011;8445;51.270;9.434;2023-07-22T03:08:09;37.72;;;26.88;;
16662;SDS011;8445;51.270;9.434;2023-07-22T03:10:35;34.85;;;27.63;;
16662;SDS011;8445;51.270;9.434;2023-07-22T03:13:00;40.55;;;28.75;;
16662;SDS011;8445;51.270;9.434;2023-07-22T03:15:27;48.53;;;31.15;;
16662;SDS011;8445;51.270;9.434;2023-07-22T03:17:53;42.13;;;31.20;;
16662;SDS011;8445;51.270;9.434;2023-07-22T03:20:27;44.37;;;32.13;;
16662;SDS011;8445;51.270;9.434;2023-07-22T03:22:52;43.42;;;32.45;;
16662;SDS011;8445;51.270;9.434;2023-07-22T03:25:19;50.93;;;33.30;;
16662;SDS011;8445;51.270;9.434;2023-07-22T03:27:45;53.22;;;31.77;;
16662;SDS011;8445;51.270;9.434;2023-07-22T03:30:14;49.97;;;31.70;;
16662;SDS011;8445;51.270;9.434;2023-07-22T03:32:41;48.83;;;32.92;;
16662;SDS011;8445;51.270;9.434;2023-07-22T03:35:08;45.60;;;31.97;;
16662;SDS011;8445;51.270;9.434;2023-07-22T03:37:35;42.28;;;31.38;;
16662;SDS011;8445;51.270;9.434;2023-07-22T03:40:02;48.65;;;33.08;;
16662;SDS011;8445;51.270;9.434;2023-07-22T03:42:57;46.40;;;29.93;;
16662;SDS011;8445;51.270;9.434;2023-07-22T03:45:22;43.78;;;30.63;;
16662;SDS011;8445;51.270;9.434;2023-07-22T03:48:06;45.40;;;30.83;;
16662;SDS011;8445;51.270;9.434;2023-07-22T03:50:32;44.47;;;29.63;;
16662;SDS011;8445;51.270;9.434;2023-07-22T03:52:57;39.58;;;29.42;;
16662;SDS011;8445;51.270;9.434;2023-07-22T03:55:25;37.22;;;29.30;;
16662;SDS011;8445;51.270;9.434;2023-07-22T03:57:53;41.10;;;30.67;;
16662;SDS011;8445;51.270;9.434;2023-07-22T04:00:20;41.10;;;29.98;;
16662;SDS011;8445;51.270;9.434;2023-07-22T04:02:46;35.17;;;28.92;;
16662;SDS011;8445;51.270;9.434;2023-07-22T04:05:12;40.85;;;28.98;;
16662;SDS011;8445;51.270;9.434;2023-07-22T04:07:38;43.70;;;29.80;;
16662;SDS011;8445;51.270;9.434;2023-07-22T04:10:04;33.05;;;29.00;;
16662;SDS011;8445;51.270;9.434;2023-07-22T04:12:31;43.35;;;28.92;;
16662;SDS011;8445;51.270;9.434;2023-07-22T04:14:56;32.47;;;26.67;;
16662;SDS011;8445;51.270;9.434;2023-07-22T04:17:22;39.00;;;27.00;;
16662;SDS011;8445;51.270;9.434;2023-07-22T04:19:48;30.15;;;26.20;;
16662;SDS011;8445;51.270;9.434;2023-07-22T04:22:13;29.23;;;26.05;;
16662;SDS011;8445;51.270;9.434;2023-07-22T04:24:39;33.08;;;25.88;;
16662;SDS011;8445;51.270;9.434;2023-07-22T04:27:04;28.88;;;24.85;;
16662;SDS011;8445;51.270;9.434;2023-07-22T04:29:30;29.13;;;24.13;;
16662;SDS011;8445;51.270;9.434;2023-07-22T04:31:59;26.17;;;23.77;;
16662;SDS011;8445;51.270;9.434;2023-07-22T04:34:29;25.25;;;22.73;;
16662;SDS011;8445;51.270;9.434;2023-07-22T04:36:55;24.90;;;22.52;;
16662;SDS011;8445;51.270;9.434;2023-07-22T04:39:21;23.45;;;21.02;;
16662;SDS011;8445;51.270;9.434;2023-07-22T04:41:47;23.23;;;20.77;;
16662;SDS011;8445;51.270;9.434;2023-07-22T04:44:12;25.67;;;21.73;;
16662;SDS011;8445;51.270;9.434;2023-07-22T04:46:37;23.92;;;21.73;;
16662;SDS011;8445;51.270;9.434;2023-07-22T04:49:03;23.20;;;20.33;;
16662;SDS011;8445;51.270;9.434;2023-07-22T04:51:28;22.73;;;19.80;;
16662;SDS011;8445;51.270;9.434;2023-07-22T04:53:54;27.60;;;20.58;;
16662;SDS011;8445;51.270;9.434;2023-07-22T04:56:19;20.98;;;18.95;;
16662;SDS011;8445;51.270;9.434;2023-07-22T04:58:45;21.83;;;19.60;;
16662;SDS011;8445;51.270;9.434;2023-07-22T05:01:10;22.52;;;19.95;;
16662;SDS011;8445;51.270;9.434;2023-07-22T05:03:36;26.88;;;18.60;;
16662;SDS011;8445;51.270;9.434;2023-07-22T05:06:01;20.38;;;18.45;;
16662;SDS011;8445;51.270;9.434;2023-07-22T05:08:27;19.50;;;17.55;;
16662;SDS011;8445;51.270;9.434;2023-07-22T05:10:52;20.85;;;17.85;;
16662;SDS011;8445;51.270;9.434;2023-07-22T05:13:18;19.73;;;17.25;;
16662;SDS011;8445;51.270;9.434;2023-07-22T05:15:44;19.92;;;17.80;;
16662;SDS011;8445;51.270;9.434;2023-07-22T05:18:09;18.58;;;16.67;;
16662;SDS011;8445;51.270;9.434;2023-07-22T05:20:35;19.52;;;17.55;;
16662;SDS011;8445;51.270;9.434;2023-07-22T05:23:02;20.67;;;17.60;;
16662;SDS011;8445;51.270;9.434;2023-07-22T05:25:28;18.45;;;16.73;;
16662;SDS011;8445;51.270;9.434;2023-07-22T05:27:53;20.20;;;16.88;;
16662;SDS011;8445;51.270;9.434;2023-07-22T05:30:18;17.48;;;15.77;;
16662;SDS011;8445;51.270;9.434;2023-07-22T05:32:44;17.88;;;15.75;;
16662;SDS011;8445;51.270;9.434;2023-07-22T05:35:10;17.58;;;15.40;;
16662;SDS011;8445;51.270;9.434;2023-07-22T05:37:35;16.42;;;14.95;;
16662;SDS011;8445;51.270;9.434;2023-07-22T05:40:01;16.95;;;15.32;;
16662;SDS011;8445;51.270;9.434;2023-07-22T05:42:27;17.35;;;15.60;;
16662;SDS011;8445;51.270;9.434;2023-07-22T05:44:54;22.85;;;14.77;;
16662;SDS011;8445;51.270;9.434;2023-07-22T05:47:19;16.38;;;14.20;;
16662;SDS011;8445;51.270;9.434;2023-07-22T05:49:45;16.92;;;15.18;;
16662;SDS011;8445;51.270;9.434;2023-07-22T05:52:15;17.48;;;15.65;;
16662;SDS011;8445;51.270;9.434;2023-07-22T05:54:41;15.32;;;13.98;;
16662;SDS011;8445;51.270;9.434;2023-07-22T05:57:06;17.13;;;15.45;;
16662;SDS011;8445;51.270;9.434;2023-07-22T05:59:32;17.58;;;15.23;;
16662;SDS011;8445;51.270;9.434;2023-07-22T06:01:57;17.33;;;14.57;;
16662;SDS011;8445;51.270;9.434;2023-07-22T06:04:23;18.77;;;17.17;;
16662;SDS011;8445;51.270;9.434;2023-07-22T06:06:48;18.38;;;16.58;;
16662;SDS011;8445;51.270;9.434;2023-07-22T06:09:14;19.30;;;14.63;;
16662;SDS011;8445;51.270;9.434;2023-07-22T06:11:40;17.70;;;16.15;;
16662;SDS011;8445;51.270;9.434;2023-07-22T06:14:05;16.95;;;15.38;;
16662;SDS011;8445;51.270;9.434;2023-07-22T06:16:32;18.63;;;17.13;;
16662;SDS011;8445;51.270;9.434;2023-07-22T06:18:57;17.92;;;14.95;;
16662;SDS011;8445;51.270;9.434;2023-07-22T06:21:23;18.02;;;16.35;;
16662;SDS011;8445;51.270;9.434;2023-07-22T06:23:48;14.65;;;13.32;;
16662;SDS011;8445;51.270;9.434;2023-07-22T06:26:14;15.45;;;13.93;;
16662;SDS011;8445;51.270;9.434;2023-07-22T06:28:39;16.75;;;15.27;;
16662;SDS011;8445;51.270;9.434;2023-07-22T06:31:05;15.20;;;13.80;;
16662;SDS011;8445;51.270;9.434;2023-07-22T06:33:30;17.15;;;15.43;;
16662;SDS011;8445;51.270;9.434;2023-07-22T06:35:55;16.75;;;15.35;;
16662;SDS011;8445;51.270;9.434;2023-07-22T06:38:24;16.38;;;14.88;;
16662;SDS011;8445;51.270;9.434;2023-07-22T06:40:51;17.63;;;14.30;;
16662;SDS011;8445;51.270;9.434;2023-07-22T06:43:17;17.10;;;15.18;;
16662;SDS011;8445;51.270;9.434;2023-07-22T06:45:43;17.48;;;16.15;;
16662;SDS011;8445;51.270;9.434;2023-07-22T06:48:08;17.02;;;15.27;;
16662;SDS011;8445;51.270;9.434;2023-07-22T06:50:34;17.77;;;16.27;;
16662;SDS011;8445;51.270;9.434;2023-07-22T06:52:59;18.45;;;16.95;;
16662;SDS011;8445;51.270;9.434;2023-07-22T06:55:25;18.05;;;16.65;;
16662;SDS011;8445;51.270;9.434;2023-07-22T06:57:59;20.02;;;16.63;;
16662;SDS011;8445;51.270;9.434;2023-07-22T07:00:24;19.05;;;17.45;;
16662;SDS011;8445;51.270;9.434;2023-07-22T07:02:50;19.98;;;14.93;;
16662;SDS011;8445;51.270;9.434;2023-07-22T07:05:20;17.35;;;15.93;;
16662;SDS011;8445;51.270;9.434;2023-07-22T07:07:48;16.50;;;15.02;;
16662;SDS011;8445;51.270;9.434;2023-07-22T07:10:14;18.63;;;17.08;;
16662;SDS011;8445;51.270;9.434;2023-07-22T07:12:40;17.55;;;16.25;;
16662;SDS011;8445;51.270;9.434;2023-07-22T07:15:05;17.90;;;16.42;;
16662;SDS011;8445;51.270;9.434;2023-07-22T07:17:31;17.55;;;16.17;;
16662;SDS011;8445;51.270;9.434;2023-07-22T07:19:56;17.55;;;15.88;;
16662;SDS011;8445;51.270;9.434;2023-07-22T07:22:22;18.58;;;17.15;;
16662;SDS011;8445;51.270;9.434;2023-07-22T07:24:47;18.33;;;16.50;;
16662;SDS011;8445;51.270;9.434;2023-07-22T07:27:13;18.50;;;16.65;;
16662;SDS011;8445;51.270;9.434;2023-07-22T07:29:38;19.25;;;17.65;;
16662;SDS011;8445;51.270;9.434;2023-07-22T07:32:04;18.85;;;17.25;;
16662;SDS011;8445;51.270;9.434;2023-07-22T07:34:30;19.33;;;17.45;;
16662;SDS011;8445;51.270;9.434;2023-07-22T07:36:55;16.40;;;15.20;;
16662;SDS011;8445;51.270;9.434;2023-07-22T07:39:21;17.42;;;15.93;;
16662;SDS011;8445;51.270;9.434;2023-07-22T07:41:47;18.55;;;16.90;;
16662;SDS011;8445;51.270;9.434;2023-07-22T07:44:13;17.35;;;15.88;;
16662;SDS011;8445;51.270;9.434;2023-07-22T07:46:38;19.50;;;17.90;;
16662;SDS011;8445;51.270;9.434;2023-07-22T07:49:04;18.20;;;16.80;;
16662;SDS011;8445;51.270;9.434;2023-07-22T07:51:30;18.30;;;16.67;;
16662;SDS011;8445;51.270;9.434;2023-07-22T07:53:56;17.73;;;16.35;;
16662;SDS011;8445;51.270;9.434;2023-07-22T07:56:24;18.10;;;16.48;;
16662;SDS011;8445;51.270;9.434;2023-07-22T07:58:52;17.63;;;16.33;;
16662;SDS011;8445;51.270;9.434;2023-07-22T08:01:18;16.88;;;15.60;;
16662;SDS011;8445;51.270;9.434;2023-07-22T08:03:44;16.13;;;14.93;;
16662;SDS011;8445;51.270;9.434;2023-07-22T08:06:10;16.25;;;15.00;;
16662;SDS011;8445;51.270;9.434;2023-07-22T08:08:36;18.50;;;16.98;;
16662;SDS011;8445;51.270;9.434;2023-07-22T08:11:06;17.98;;;16.55;;
16662;SDS011;8445;51.270;9.434;2023-07-22T08:13:38;17.00;;;15.45;;
16662;SDS011;8445;51.270;9.434;2023-07-22T08:16:05;16.70;;;15.40;;
16662;SDS011;8445;51.270;9.434;2023-07-22T08:18:32;15.55;;;14.45;;
16662;SDS011;8445;51.270;9.434;2023-07-22T08:20:58;17.23;;;15.77;;
16662;SDS011;8445;51.270;9.434;2023-07-22T08:23:24;16.17;;;14.77;;
16662;SDS011;8445;51.270;9.434;2023-07-22T08:25:50;15.82;;;14.60;;
16662;SDS011;8445;51.270;9.434;2023-07-22T08:28:15;15.93;;;14.82;;
16662;SDS011;8445;51.270;9.434;2023-07-22T08:30:41;14.10;;;13.00;;
16662;SDS011;8445;51.270;9.434;2023-07-22T08:33:11;15.88;;;14.68;;
16662;SDS011;8445;51.270;9.434;2023-07-22T08:35:37;16.73;;;15.23;;
16662;SDS011;8445;51.270;9.434;2023-07-22T08:38:04;15.10;;;13.70;;
16662;SDS011;8445;51.270;9.434;2023-07-22T08:40:33;15.13;;;13.82;;
16662;SDS011;8445;51.270;9.434;2023-07-22T08:43:00;15.75;;;14.52;;
16662;SDS011;8445;51.270;9.434;2023-07-22T08:45:28;16.08;;;14.90;;
16662;SDS011;8445;51.270;9.434;2023-07-22T08:47:58;15.27;;;14.18;;
16662;SDS011;8445;51.270;9.434;2023-07-22T08:50:26;14.15;;;13.07;;
16662;SDS011;8445;51.270;9.434;2023-07-22T08:52:55;13.23;;;12.32;;
16662;SDS011;8445;51.270;9.434;2023-07-22T08:55:22;14.63;;;13.63;;
16662;SDS011;8445;51.270;9.434;2023-07-22T08:57:48;13.23;;;12.32;;
16662;SDS011;8445;51.270;9.434;2023-07-22T09:00:15;14.60;;;13.27;;
16662;SDS011;8445;51.270;9.434;2023-07-22T09:02:42;15.65;;;14.48;;
16662;SDS011;8445;51.270;9.434;2023-07-22T09:05:07;15.43;;;14.32;;
16662;SDS011;8445;51.270;9.434;2023-07-22T09:07:35;15.65;;;14.57;;
16662;SDS011;8445;51.270;9.434;2023-07-22T09:10:01;14.13;;;12.88;;
16662;SDS011;8445;51.270;9.434;2023-07-22T09:12:28;12.73;;;11.80;;
16662;SDS011;8445;51.270;9.434;2023-07-22T09:14:57;13.55;;;12.60;;
16662;SDS011;8445;51.270;9.434;2023-07-22T09:17:23;14.13;;;13.13;;
16662;SDS011;8445;51.270;9.434;2023-07-22T09:19:52;14.52;;;13.52;;
16662;SDS011;8445;51.270;9.434;2023-07-22T09:22:24;14.23;;;13.20;;
16662;SDS011;8445;51.270;9.434;2023-07-22T09:24:51;13.52;;;12.63;;
16662;SDS011;8445;51.270;9.434;2023-07-22T09:27:31;14.02;;;12.75;;
16662;SDS011;8445;51.270;9.434;2023-07-22T09:29:58;14.18;;;13.18;;
16662;SDS011;8445;51.270;9.434;2023-07-22T09:32:36;13.52;;;12.40;;
16662;SDS011;8445;51.270;9.434;2023-07-22T09:35:02;14.18;;;12.90;;
16662;SDS011;8445;51.270;9.434;2023-07-22T09:37:37;12.38;;;11.30;;
16662;SDS011;8445;51.270;9.434;2023-07-22T09:40:19;12.10;;;10.90;;
16662;SDS011;8445;51.270;9.434;2023-07-22T09:42:47;12.10;;;10.85;;
16662;SDS011;8445;51.270;9.434;2023-07-22T09:45:17;11.68;;;10.80;;
16662;SDS011;8445;51.270;9.434;2023-07-22T09:47:45;12.25;;;11.35;;
16662;SDS011;8445;51.270;9.434;2023-07-22T09:50:15;12.63;;;11.82;;
16662;SDS011;8445;51.270;9.434;2023-07-22T09:52:48;12.00;;;11.27;;
16662;SDS011;8445;51.270;9.434;2023-07-22T09:55:15;12.15;;;11.35;;
16662;SDS011;8445;51.270;9.434;2023-07-22T09:57:49;11.32;;;10.52;;
16662;SDS011;8445;51.270;9.434;2023-07-22T10:00:17;11.10;;;10.40;;
16662;SDS011;8445;51.270;9.434;2023-07-22T10:02:45;11.68;;;10.77;;
16662;SDS011;8445;51.270;9.434;2023-07-22T10:05:13;10.95;;;10.25;;
16662;SDS011;8445;51.270;9.434;2023-07-22T10:07:43;10.48;;;9.63;;
16662;SDS011;8445;51.270;9.434;2023-07-22T10:10:11;10.32;;;9.43;;
16662;SDS011;8445;51.270;9.434;2023-07-22T10:12:40;10.60;;;9.80;;
16662;SDS011;8445;51.270;9.434;2023-07-22T10:15:07;10.57;;;9.88;;
16662;SDS011;8445;51.270;9.434;2023-07-22T10:17:34;10.20;;;9.30;;
16662;SDS011;8445;51.270;9.434;2023-07-22T10:20:01;11.43;;;10.57;;
16662;SDS011;8445;51.270;9.434;2023-07-22T10:22:30;10.18;;;9.40;;
16662;SDS011;8445;51.270;9.434;2023-07-22T10:24:56;10.55;;;9.82;;
16662;SDS011;8445;51.270;9.434;2023-07-22T10:27:24;10.65;;;10.02;;
16662;SDS011;8445;51.270;9.434;2023-07-22T10:29:50;10.43;;;9.77;;
16662;SDS011;8445;51.270;9.434;2023-07-22T10:32:17;9.85;;;8.98;;
16662;SDS011;8445;51.270;9.434;2023-07-22T10:34:44;9.65;;;8.93;;
16662;SDS011;8445;51.270;9.434;2023-07-22T10:37:09;9.65;;;9.05;;
16662;SDS011;8445;51.270;9.434;2023-07-22T10:39:36;11.57;;;10.68;;
16662;SDS011;8445;51.270;9.434;2023-07-22T10:42:04;11.73;;;10.93;;
16662;SDS011;8445;51.270;9.434;2023-07-22T10:44:31;11.10;;;10.40;;
16662;SDS011;8445;51.270;9.434;2023-07-22T10:46:58;11.38;;;10.38;;
16662;SDS011;8445;51.270;9.434;2023-07-22T10:49:24;11.15;;;10.35;;
16662;SDS011;8445;51.270;9.434;2023-07-22T10:52:07;11.63;;;10.88;;
16662;SDS011;8445;51.270;9.434;2023-07-22T10:54:35;11.30;;;10.60;;
16662;SDS011;8445;51.270;9.434;2023-07-22T10:59:51;11.77;;;11.10;;
16662;SDS011;8445;51.270;9.434;2023-07-22T11:02:24;11.82;;;10.93;;
16662;SDS011;8445;51.270;9.434;2023-07-22T11:04:57;13.50;;;12.30;;
16662;SDS011;8445;51.270;9.434;2023-07-22T11:07:34;11.30;;;10.60;;
16662;SDS011;8445;51.270;9.434;2023-07-22T11:10:15;11.32;;;10.52;;
16662;SDS011;8445;51.270;9.434;2023-07-22T11:12:44;11.57;;;10.88;;
16662;SDS011;8445;51.270;9.434;2023-07-22T11:15:10;11.32;;;10.63;;
16662;SDS011;8445;51.270;9.434;2023-07-22T11:17:40;11.30;;;10.35;;
16662;SDS011;8445;51.270;9.434;2023-07-22T11:20:05;10.40;;;9.70;;
16662;SDS011;8445;51.270;9.434;2023-07-22T11:22:31;10.57;;;9.88;;
16662;SDS011;8445;51.270;9.434;2023-07-22T11:24:57;9.43;;;8.93;;
16662;SDS011;8445;51.270;9.434;2023-07-22T11:27:23;10.90;;;10.07;;
16662;SDS011;8445;51.270;9.434;2023-07-22T11:29:49;12.40;;;11.50;;
16662;SDS011;8445;51.270;9.434;2023-07-22T11:32:15;12.15;;;11.25;;
16662;SDS011;8445;51.270;9.434;2023-07-22T11:34:42;12.43;;;11.52;;
16662;SDS011;8445;51.270;9.434;2023-07-22T11:37:10;11.15;;;10.48;;
16662;SDS011;8445;51.270;9.434;2023-07-22T11:39:36;12.30;;;11.40;;
16662;SDS011;8445;51.270;9.434;2023-07-22T11:42:02;11.15;;;10.48;;
16662;SDS011;8445;51.270;9.434;2023-07-22T11:44:29;10.48;;;9.75;;
16662;SDS011;8445;51.270;9.434;2023-07-22T11:47:02;10.25;;;9.40;;
16662;SDS011;8445;51.270;9.434;2023-07-22T11:49:35;10.68;;;9.98;;
16662;SDS011;8445;51.270;9.434;2023-07-22T11:54:35;11.05;;;10.25;;
16662;SDS011;8445;51.270;9.434;2023-07-22T11:59:46;10.75;;;9.85;;
16662;SDS011;8445;51.270;9.434;2023-07-22T12:02:27;10.55;;;9.73;;
16662;SDS011;8445;51.270;9.434;2023-07-22T12:04:57;9.43;;;8.82;;
16662;SDS011;8445;51.270;9.434;2023-07-22T12:09:54;11.50;;;10.80;;
16662;SDS011;8445;51.270;9.434;2023-07-22T12:12:21;10.30;;;9.70;;
16662;SDS011;8445;51.270;9.434;2023-07-22T12:15:00;9.73;;;9.13;;
16662;SDS011;8445;51.270;9.434;2023-07-22T12:17:29;10.30;;;9.50;;
16662;SDS011;8445;51.270;9.434;2023-07-22T12:20:02;10.23;;;9.52;;
16662;SDS011;8445;51.270;9.434;2023-07-22T12:22:31;10.80;;;10.20;;
16662;SDS011;8445;51.270;9.434;2023-07-22T12:24:56;11.40;;;10.70;;
16662;SDS011;8445;51.270;9.434;2023-07-22T12:27:24;10.43;;;9.73;;
16662;SDS011;8445;51.270;9.434;2023-07-22T12:29:50;11.38;;;10.68;;
16662;SDS011;8445;51.270;9.434;2023-07-22T12:32:15;11.15;;;10.35;;
16662;SDS011;8445;51.270;9.434;2023-07-22T12:34:41;10.60;;;10.00;;
16662;SDS011;8445;51.270;9.434;2023-07-22T12:37:07;11.25;;;10.55;;
16662;SDS011;8445;51.270;9.434;2023-07-22T12:39:32;10.50;;;9.80;;
16662;SDS011;8445;51.270;9.434;2023-07-22T12:41:58;11.57;;;9.90;;
16662;SDS011;8445;51.270;9.434;2023-07-22T12:44:23;9.77;;;8.98;;
16662;SDS011;8445;51.270;9.434;2023-07-22T12:46:49;10.60;;;10.00;;
16662;SDS011;8445;51.270;9.434;2023-07-22T12:49:14;11.40;;;10.60;;
16662;SDS011;8445;51.270;9.434;2023-07-22T12:51:40;9.60;;;8.85;;
16662;SDS011;8445;51.270;9.434;2023-07-22T12:54:05;11.27;;;9.48;;
16662;SDS011;8445;51.270;9.434;2023-07-22T12:56:31;10.80;;;9.98;;
16662;SDS011;8445;51.270;9.434;2023-07-22T12:58:56;10.30;;;9.23;;
16662;SDS011;8445;51.270;9.434;2023-07-22T13:01:22;11.65;;;10.85;;
16662;SDS011;8445;51.270;9.434;2023-07-22T13:03:47;11.77;;;11.07;;
16662;SDS011;8445;51.270;9.434;2023-07-22T13:06:13;11.93;;;11.07;;
16662;SDS011;8445;51.270;9.434;2023-07-22T13:08:38;10.07;;;9.38;;
16662;SDS011;8445;51.270;9.434;2023-07-22T13:11:04;10.88;;;10.00;;
16662;SDS011;8445;51.270;9.434;2023-07-22T13:13:29;9.98;;;9.32;;
16662;SDS011;8445;51.270;9.434;2023-07-22T13:15:54;11.43;;;10.63;;
16662;SDS011;8445;51.270;9.434;2023-07-22T13:18:20;11.35;;;10.75;;
16662;SDS011;8445;51.270;9.434;2023-07-22T13:20:46;9.50;;;8.90;;
16662;SDS011;8445;51.270;9.434;2023-07-22T13:23:11;9.65;;;9.15;;
16662;SDS011;8445;51.270;9.434;2023-07-22T13:25:37;8.55;;;8.05;;
16662;SDS011;8445;51.270;9.434;2023-07-22T13:28:02;9.88;;;9.15;;
16662;SDS011;8445;51.270;9.434;2023-07-22T13:30:28;9.63;;;8.93;;
16662;SDS011;8445;51.270;9.434;2023-07-22T13:32:53;9.10;;;8.48;;
16662;SDS011;8445;51.270;9.434;2023-07-22T13:35:21;7.90;;;7.30;;
16662;SDS011;8445;51.270;9.434;2023-07-22T13:37:47;8.18;;;7.57;;
16662;SDS011;8445;51.270;9.434;2023-07-22T13:40:12;8.55;;;7.72;;
16662;SDS011;8445;51.270;9.434;2023-07-22T13:42:38;8.65;;;8.15;;
16662;SDS011;8445;51.270;9.434;2023-07-22T13:45:04;9.05;;;8.55;;
16662;SDS011;8445;51.270;9.434;2023-07-22T13:47:31;8.50;;;8.00;;
16662;SDS011;8445;51.270;9.434;2023-07-22T13:49:56;8.82;;;8.38;;
16662;SDS011;8445;51.270;9.434;2023-07-22T13:52:22;10.25;;;9.65;;
16662;SDS011;8445;51.270;9.434;2023-07-22T13:54:47;9.65;;;9.10;;
16662;SDS011;8445;51.270;9.434;2023-07-22T13:57:13;9.70;;;9.00;;
16662;SDS011;8445;51.270;9.434;2023-07-22T13:59:38;8.80;;;8.25;;
16662;SDS011;8445;51.270;9.434;2023-07-22T14:02:04;8.88;;;8.32;;
16662;SDS011;8445;51.270;9.434;2023-07-22T14:04:30;8.90;;;8.32;;
16662;SDS011;8445;51.270;9.434;2023-07-22T14:06:55;8.77;;;8.07;;
16662;SDS011;8445;51.270;9.434;2023-07-22T14:09:21;8.95;;;8.45;;
16662;SDS011;8445;51.270;9.434;2023-07-22T14:11:46;10.02;;;9.52;;
16662;SDS011;8445;51.270;9.434;2023-07-22T14:14:12;9.20;;;8.60;;
16662;SDS011;8445;51.270;9.434;2023-07-22T14:16:37;9.20;;;8.50;;
16662;SDS011;8445;51.270;9.434;2023-07-22T14:19:03;8.90;;;8.40;;
16662;SDS011;8445;51.270;9.434;2023-07-22T14:21:28;8.50;;;7.90;;
16662;SDS011;8445;51.270;9.434;2023-07-22T14:23:54;8.70;;;8.20;;
16662;SDS011;8445;51.270;9.434;2023-07-22T14:26:20;8.20;;;7.70;;
16662;SDS011;8445;51.270;9.434;2023-07-22T14:28:45;7.90;;;7.40;;
16662;SDS011;8445;51.270;9.434;2023-07-22T14:31:11;7.55;;;6.95;;
16662;SDS011;8445;51.270;9.434;2023-07-22T14:33:37;8.30;;;7.80;;
16662;SDS011;8445;51.270;9.434;2023-07-22T14:36:02;9.05;;;8.40;;
16662;SDS011;8445;51.270;9.434;2023-07-22T14:38:28;8.45;;;7.95;;
16662;SDS011;8445;51.270;9.434;2023-07-22T14:40:54;8.30;;;7.78;;
16662;SDS011;8445;51.270;9.434;2023-07-22T14:43:19;9.23;;;8.68;;
16662;SDS011;8445;51.270;9.434;2023-07-22T14:45:45;10.55;;;9.60;;
16662;SDS011;8445;51.270;9.434;2023-07-22T14:48:10;9.60;;;9.00;;